Time;durP1;ratioP1;P1;durP2;ratioP2;P2;SDS_P1;SDS_P2;PMS_P1;PMS_P2;Temp;Humidity;BMP_temperature;BMP_pressure;BME280_temperature;BME280_humidity;BME280_pressure;Samples;Min_cycle;Max_cycle;Signal;HPM_P1;HPM_P2
2022/02/04 00:20:16;;;;;;;17.75;11.80;;;9.90;81.10;;;;;;5096083;28;20167;-86
2022/02/04 00:22:57;;;;;;;16.60;12.27;;;10.10;81.30;;;;;;5094930;28;20206;-87
2022/02/04 00:28:15;;;;;;;19.35;12.60;;;10.00;80.90;;;;;;5089567;28;20180;-87
2022/02/04 00:30:47;;;;;;;18.88;10.50;;;10.20;81.00;;;;;;5111580;28;20378;-85
2022/02/04 00:33:14;;;;;;;21.30;11.02;;;10.10;80.20;;;;;;5095112;28;20200;-86
2022/02/04 00:38:21;;;;;;;18.45;11.40;;;10.20;79.60;;;;;;5104641;28;20388;-87
2022/02/04 00:40:51;;;;;;;21.15;9.90;;;10.10;79.80;;;;;;5106395;28;20497;-86
2022/02/04 00:43:18;;;;;;;20.15;10.38;;;10.00;79.90;;;;;;5107638;28;20203;-86
2022/02/04 00:51:01;;;;;;;22.60;12.10;;;10.00;79.90;;;;;;5096694;28;20279;-89
2022/02/04 01:26:08;;;;;;;14.82;9.32;;;9.90;80.60;;;;;;5094318;28;20321;-87
2022/02/04 01:28:37;;;;;;;15.18;9.85;;;9.70;80.70;;;;;;5095792;28;20156;-88
2022/02/04 01:31:04;;;;;;;14.80;8.95;;;9.60;80.90;;;;;;5093098;28;20203;-88
2022/02/04 01:33:32;;;;;;;17.80;9.15;;;9.60;81.10;;;;;;5093994;28;20196;-88
2022/02/04 01:35:58;;;;;;;16.33;8.63;;;9.70;81.20;;;;;;5093921;28;20168;-88
2022/02/04 01:38:27;;;;;;;17.23;8.98;;;9.60;81.10;;;;;;5092741;28;20190;-88
2022/02/04 01:40:53;;;;;;;18.60;9.40;;;9.50;81.30;;;;;;5092751;28;20180;-88
2022/02/04 01:43:22;;;;;;;22.33;10.65;;;9.50;81.60;;;;;;5092742;28;20226;-88
2022/02/04 01:45:53;;;;;;;14.93;8.40;;;9.50;81.80;;;;;;5092509;28;20188;-88
2022/02/04 01:48:19;;;;;;;14.05;8.38;;;9.40;81.60;;;;;;5096820;28;20592;-88
2022/02/04 01:50:46;;;;;;;12.20;7.85;;;9.50;81.70;;;;;;5097138;28;20202;-88
2022/02/04 01:53:14;;;;;;;13.10;7.30;;;9.40;81.70;;;;;;5097368;28;20740;-88
2022/02/04 01:55:41;;;;;;;12.82;8.32;;;9.30;81.80;;;;;;5097205;28;20624;-88
2022/02/04 01:58:08;;;;;;;12.90;7.70;;;9.30;81.90;;;;;;5097522;28;20183;-88
2022/02/04 02:00:47;;;;;;;13.63;7.88;;;9.30;82.10;;;;;;5097623;28;20301;-88
2022/02/04 02:03:13;;;;;;;14.60;8.98;;;9.20;82.00;;;;;;5098539;28;20230;-89
2022/02/04 02:05:38;;;;;;;16.20;7.63;;;9.10;82.40;;;;;;5108469;28;20667;-88
2022/02/04 02:08:10;;;;;;;13.23;8.00;;;9.10;82.60;;;;;;5106104;28;20172;-88
2022/02/04 02:10:36;;;;;;;16.75;9.25;;;9.10;82.90;;;;;;5105004;28;20203;-88
2022/02/04 02:48:30;;;;;;;8.38;6.05;;;10.00;79.40;;;;;;5077516;28;20541;-89
2022/02/04 02:53:44;;;;;;;11.63;5.95;;;9.90;79.10;;;;;;5076372;28;20575;-89
2022/02/04 02:58:32;;;;;;;10.68;5.63;;;9.90;78.60;;;;;;5076303;28;20529;-89
2022/02/04 03:01:06;;;;;;;10.82;4.80;;;9.80;78.50;;;;;;5075137;28;20184;-89
2022/02/04 03:03:34;;;;;;;7.53;5.47;;;9.90;78.60;;;;;;5074936;28;20585;-89
2022/02/04 03:06:00;;;;;;;7.25;4.72;;;10.00;78.10;;;;;;5075442;28;20269;-89
2022/02/04 03:08:27;;;;;;;5.20;3.90;;;9.90;78.00;;;;;;5075009;28;20180;-89
2022/02/04 03:10:54;;;;;;;6.78;4.90;;;9.90;78.20;;;;;;5075006;28;20208;-89
2022/02/04 03:13:25;;;;;;;10.15;4.90;;;9.80;78.10;;;;;;5076509;28;20211;-89
2022/02/04 03:15:59;;;;;;;9.15;4.53;;;10.00;78.40;;;;;;5075154;28;20281;-89
2022/02/04 03:18:27;;;;;;;7.13;4.28;;;10.00;78.00;;;;;;5075388;28;20174;-90
2022/02/04 03:20:58;;;;;;;5.47;4.05;;;10.00;78.00;;;;;;5075342;28;20180;-90
2022/02/04 03:23:25;;;;;;;5.50;4.30;;;10.00;78.10;;;;;;5076145;28;20200;-89
2022/02/04 03:25:57;;;;;;;10.65;4.35;;;10.00;78.30;;;;;;5076982;28;20190;-89
2022/02/04 03:28:27;;;;;;;8.95;4.00;;;9.90;78.00;;;;;;5076652;28;20545;-89
2022/02/04 03:30:56;;;;;;;5.57;2.85;;;10.00;78.60;;;;;;5084724;28;20207;-90
2022/02/04 03:33:25;;;;;;;5.07;3.38;;;10.00;78.40;;;;;;5088609;28;20284;-89
2022/02/04 03:35:56;;;;;;;8.02;4.20;;;9.90;78.30;;;;;;5098086;28;20633;-88
2022/02/04 03:38:22;;;;;;;8.32;4.10;;;9.90;78.50;;;;;;5081972;28;20180;-89
2022/02/04 03:40:48;;;;;;;6.83;3.67;;;10.10;78.60;;;;;;5082104;28;20189;-89
2022/02/04 03:43:13;;;;;;;9.33;4.43;;;9.90;78.40;;;;;;5101711;28;20203;-89
2022/02/04 03:45:40;;;;;;;9.40;3.97;;;9.90;78.50;;;;;;5102474;28;20176;-88
2022/02/04 03:48:06;;;;;;;5.90;3.72;;;9.90;78.60;;;;;;5108485;28;20418;-89
2022/02/04 03:50:31;;;;;;;4.82;3.75;;;9.90;78.70;;;;;;5097931;28;20235;-90
2022/02/04 03:52:57;;;;;;;5.00;3.60;;;9.90;78.80;;;;;;5094445;28;20671;-90
2022/02/04 03:55:48;;;;;;;5.63;3.40;;;9.90;79.00;;;;;;5094793;28;20207;-90
2022/02/04 03:58:13;;;;;;;4.88;3.85;;;9.90;79.00;;;;;;5094424;28;20421;-90
2022/02/04 04:00:40;;;;;;;7.27;4.47;;;9.90;78.80;;;;;;5095362;28;20185;-89
2022/02/04 04:03:06;;;;;;;5.38;3.30;;;9.90;79.00;;;;;;5093786;28;20195;-89
2022/02/04 04:05:33;;;;;;;7.05;3.85;;;9.80;79.10;;;;;;5093776;28;20244;-89
2022/02/04 04:07:58;;;;;;;5.10;3.70;;;10.00;79.30;;;;;;5094077;28;20171;-89
2022/02/04 04:10:27;;;;;;;6.73;3.80;;;9.90;79.20;;;;;;5093192;28;20210;-88
2022/02/04 04:12:57;;;;;;;5.03;3.80;;;9.90;79.30;;;;;;5094480;28;20204;-88
2022/02/04 04:15:29;;;;;;;7.43;3.22;;;10.10;79.10;;;;;;5093739;28;20176;-89
2022/02/04 04:17:54;;;;;;;5.30;3.50;;;10.20;78.90;;;;;;5095062;28;20167;-88
2022/02/04 04:20:23;;;;;;;6.57;4.03;;;10.30;78.50;;;;;;5095514;28;20168;-89
2022/02/04 04:22:49;;;;;;;5.25;4.30;;;10.20;78.20;;;;;;5093812;28;20268;-89
2022/02/04 04:25:16;;;;;;;9.05;3.30;;;10.10;78.40;;;;;;5097457;28;20184;-89
2022/02/04 04:27:43;;;;;;;6.07;3.40;;;10.10;78.30;;;;;;5099398;28;20233;-89
2022/02/04 04:30:11;;;;;;;6.00;4.03;;;10.20;78.30;;;;;;5102218;28;20220;-89
2022/02/04 04:32:37;;;;;;;12.43;4.75;;;10.20;78.30;;;;;;5095527;28;20198;-89
2022/02/04 04:35:03;;;;;;;6.90;3.90;;;10.20;78.30;;;;;;5094113;28;20176;-89
2022/02/04 04:37:29;;;;;;;5.60;3.90;;;10.20;78.40;;;;;;5094755;28;20172;-90
2022/02/04 04:40:22;;;;;;;6.10;3.97;;;10.10;78.60;;;;;;5103687;28;20183;-89
2022/02/04 04:42:59;;;;;;;6.70;3.90;;;10.20;78.60;;;;;;5095308;28;20200;-89
2022/02/04 04:46:30;;;;;;;4.20;3.25;;;10.20;78.40;;;;;;5093889;28;20174;-89
2022/02/04 05:29:57;;;;;;;6.22;3.22;;;9.70;79.50;;;;;;5094429;28;20199;-89
2022/02/04 05:32:23;;;;;;;7.07;4.30;;;9.80;79.90;;;;;;5093178;28;20576;-89
2022/02/04 05:34:50;;;;;;;4.82;3.40;;;9.70;80.20;;;;;;5095899;28;20554;-89
2022/02/04 05:37:18;;;;;;;3.85;3.08;;;9.80;80.00;;;;;;5094381;28;20195;-90
2022/02/04 05:39:55;;;;;;;5.88;3.80;;;9.80;80.00;;;;;;5093449;28;20191;-89
2022/02/04 05:42:27;;;;;;;8.30;3.95;;;9.90;80.20;;;;;;5094924;28;20252;-89
2022/02/04 05:45:00;;;;;;;6.90;4.22;;;10.00;79.90;;;;;;5100693;28;20249;-89
2022/02/04 05:47:26;;;;;;;6.18;4.40;;;10.10;80.00;;;;;;5098350;28;20271;-89
2022/02/04 05:52:33;;;;;;;8.05;4.43;;;10.00;80.00;;;;;;5095093;28;20623;-89
2022/02/04 05:55:16;;;;;;;8.40;4.95;;;9.90;80.60;;;;;;5092679;28;20612;-89
2022/02/04 05:58:02;;;;;;;6.57;5.13;;;9.80;81.30;;;;;;5073022;28;20242;-88
2022/02/04 06:11:20;;;;;;;8.05;5.85;;;9.80;83.00;;;;;;5095982;28;20215;-89
2022/02/04 06:24:36;;;;;;;13.63;8.63;;;9.50;85.20;;;;;;5109105;28;20193;-90
2022/02/04 06:27:03;;;;;;;15.30;8.97;;;9.60;85.20;;;;;;5110442;28;20188;-89
2022/02/04 06:29:29;;;;;;;14.00;7.93;;;9.50;85.10;;;;;;5094096;28;20521;-89
2022/02/04 06:31:55;;;;;;;10.88;7.63;;;9.60;85.20;;;;;;5093461;28;20172;-89
2022/02/04 06:34:21;;;;;;;15.77;8.80;;;9.60;85.20;;;;;;5096881;28;20204;-89
2022/02/04 06:36:46;;;;;;;12.50;7.53;;;9.40;85.40;;;;;;5101251;28;20417;-89
2022/02/04 06:39:12;;;;;;;17.63;9.30;;;9.50;85.60;;;;;;5102311;28;20172;-89
2022/02/04 06:41:38;;;;;;;13.67;7.93;;;9.60;85.50;;;;;;5104385;28;20620;-89
2022/02/04 06:44:04;;;;;;;15.33;7.87;;;9.60;85.20;;;;;;5103079;28;20314;-88
2022/02/04 06:46:30;;;;;;;12.20;8.00;;;9.50;85.20;;;;;;5101551;28;20176;-90
2022/02/04 06:48:56;;;;;;;12.43;8.43;;;9.60;85.20;;;;;;5096589;28;20180;-90
2022/02/04 06:51:22;;;;;;;14.27;8.50;;;9.70;85.20;;;;;;5096221;28;20191;-90
2022/02/04 06:53:48;;;;;;;19.03;9.07;;;9.70;84.60;;;;;;5095716;28;20702;-90
2022/02/04 06:56:14;;;;;;;13.43;7.73;;;9.70;84.30;;;;;;5096540;28;20528;-89
2022/02/04 06:58:39;;;;;;;10.52;6.50;;;9.70;85.10;;;;;;5095680;28;20176;-89
2022/02/04 07:01:05;;;;;;;16.73;8.50;;;9.70;83.90;;;;;;5098135;28;20704;-89
2022/02/04 07:03:32;;;;;;;12.90;8.13;;;9.60;83.40;;;;;;5095947;28;20199;-90
2022/02/04 07:06:00;;;;;;;11.15;7.75;;;9.40;83.90;;;;;;5096654;28;20579;-89
2022/02/04 07:08:43;;;;;;;15.07;8.00;;;9.50;84.30;;;;;;5096027;28;20271;-89
2022/02/04 07:14:05;;;;;;;16.60;7.00;;;9.70;83.90;;;;;;5097066;28;20734;-89
2022/02/04 07:22:19;;;;;;;10.68;7.20;;;9.80;83.40;;;;;;5097909;28;20189;-89
2022/02/04 07:24:47;;;;;;;11.00;7.32;;;9.70;82.90;;;;;;5095628;28;20165;-89
2022/02/04 07:27:13;;;;;;;10.73;7.30;;;9.70;83.30;;;;;;5096789;28;20549;-89
2022/02/04 07:29:40;;;;;;;12.03;7.40;;;9.80;83.20;;;;;;5097009;28;20211;-88
2022/02/04 07:32:12;;;;;;;9.30;6.85;;;9.60;82.80;;;;;;5095816;28;20226;-89
2022/02/04 07:35:00;;;;;;;8.98;8.02;;;9.70;83.20;;;;;;5096293;28;20221;-89
2022/02/04 07:43:13;;;;;;;11.13;6.60;;;9.60;83.40;;;;;;5081548;28;20215;-88
2022/02/04 07:45:39;;;;;;;7.83;5.77;;;9.50;83.70;;;;;;5099583;28;20180;-89
2022/02/04 07:48:05;;;;;;;12.57;6.97;;;9.60;84.10;;;;;;5095965;28;20180;-89
2022/02/04 07:50:31;;;;;;;9.50;6.10;;;9.60;84.30;;;;;;5096483;28;20320;-89
2022/02/04 07:52:58;;;;;;;9.07;6.57;;;9.70;84.30;;;;;;5096990;28;20508;-89
2022/02/04 07:55:23;;;;;;;9.48;6.93;;;9.70;84.10;;;;;;5096972;28;20433;-89
2022/02/04 07:57:50;;;;;;;8.20;7.10;;;9.70;84.10;;;;;;5096983;28;20651;-89
2022/02/04 08:00:17;;;;;;;9.98;5.38;;;9.80;84.10;;;;;;5097982;28;20418;-89
2022/02/04 08:02:45;;;;;;;9.88;5.72;;;9.70;83.60;;;;;;5103965;28;20267;-89
2022/02/04 08:05:15;;;;;;;7.22;5.40;;;9.70;83.80;;;;;;5103463;28;20199;-89
2022/02/04 08:14:07;;;;;;;6.38;5.47;;;9.80;83.60;;;;;;5106465;28;20585;-89
2022/02/04 08:21:39;;;;;;;6.05;4.13;;;10.10;83.00;;;;;;5079415;28;20254;-88
2022/02/04 08:32:17;;;;;;;11.48;4.47;;;10.10;81.80;;;;;;5095705;28;20194;-89
2022/02/04 08:50:40;;;;;;;5.07;4.65;;;10.10;81.10;;;;;;5075327;28;20751;-89
2022/02/04 08:55:54;;;;;;;5.93;4.35;;;10.20;80.80;;;;;;5075686;28;20245;-89
2022/02/04 08:58:36;;;;;;;5.65;4.10;;;10.10;80.70;;;;;;5074665;28;20172;-89
2022/02/04 09:01:20;;;;;;;7.75;5.35;;;10.00;81.10;;;;;;5076471;28;20251;-89
2022/02/04 09:06:24;;;;;;;10.20;5.10;;;9.90;82.40;;;;;;5091832;28;20180;-89
2022/02/04 09:08:59;;;;;;;7.43;5.78;;;10.00;83.00;;;;;;5081371;28;20198;-89
2022/02/04 09:19:28;;;;;;;11.75;5.72;;;9.80;84.90;;;;;;5097914;28;20247;-89
2022/02/04 09:24:54;;;;;;;8.25;5.72;;;9.80;85.30;;;;;;5104061;28;20179;-89
2022/02/04 09:27:20;;;;;;;5.25;4.75;;;9.90;85.30;;;;;;5100391;28;20312;-89
2022/02/04 09:29:46;;;;;;;7.32;5.78;;;9.90;85.00;;;;;;5098328;28;20222;-88
2022/02/04 09:32:12;;;;;;;7.85;7.00;;;9.90;84.80;;;;;;5102253;28;20203;-88
2022/02/04 09:34:39;;;;;;;8.60;6.10;;;9.90;84.60;;;;;;5096280;28;20647;-89
2022/02/04 09:37:05;;;;;;;9.15;6.30;;;9.90;84.60;;;;;;5094829;28;20175;-87
2022/02/04 09:39:30;;;;;;;7.00;5.10;;;9.80;84.60;;;;;;5094199;28;20253;-89
2022/02/04 09:41:56;;;;;;;7.43;6.30;;;9.90;84.80;;;;;;5087041;28;20208;-88
2022/02/04 09:44:21;;;;;;;11.63;6.73;;;10.00;84.50;;;;;;5085671;28;20267;-88
2022/02/04 09:46:55;;;;;;;8.47;6.67;;;10.10;84.00;;;;;;5089893;28;20168;-90
2022/02/04 09:49:25;;;;;;;8.07;5.82;;;10.00;83.30;;;;;;5091879;28;20160;-91
2022/02/04 10:04:30;;;;;;;10.55;6.65;;;10.00;83.50;;;;;;5095378;28;20550;-90
2022/02/04 10:19:23;;;;;;;4.97;4.32;;;10.50;80.00;;;;;;5098681;28;20207;-90
2022/02/04 10:21:57;;;;;;;5.60;3.90;;;10.70;79.80;;;;;;5097210;28;20160;-91
2022/02/04 10:24:35;;;;;;;6.82;4.55;;;10.80;79.30;;;;;;5098480;28;20180;-91
2022/02/04 10:27:19;;;;;;;5.05;3.67;;;10.70;78.00;;;;;;5077737;28;20157;-91
2022/02/04 10:29:53;;;;;;;4.38;3.75;;;10.60;77.80;;;;;;5077545;28;20204;-91
2022/02/04 10:32:40;;;;;;;9.55;4.68;;;10.70;78.20;;;;;;5077513;28;20192;-91
2022/02/04 10:35:30;;;;;;;4.35;3.78;;;10.50;77.20;;;;;;5072337;28;20199;-91
2022/02/04 10:38:16;;;;;;;7.32;4.47;;;10.20;77.30;;;;;;5078886;28;20179;-90
2022/02/04 10:46:39;;;;;;;7.72;4.80;;;10.20;77.60;;;;;;5066800;28;20177;-89
2022/02/04 10:49:40;;;;;;;7.10;4.35;;;10.20;77.50;;;;;;5078206;28;20169;-91
2022/02/04 11:00:41;;;;;;;6.00;3.50;;;10.80;76.30;;;;;;5100075;28;20258;-90
2022/02/04 11:03:11;;;;;;;5.15;3.63;;;10.60;75.10;;;;;;5099247;28;20277;-89
2022/02/04 11:05:57;;;;;;;4.40;3.80;;;10.70;76.10;;;;;;5088819;28;20188;-89
2022/02/04 11:08:48;;;;;;;5.15;3.65;;;10.70;75.40;;;;;;5093889;28;20636;-89
2022/02/04 11:57:18;;;;;;;4.88;4.07;;;11.30;73.50;;;;;;5076860;28;20306;-91
2022/02/04 11:59:53;;;;;;;6.40;4.55;;;11.40;73.80;;;;;;5070795;28;20187;-92
2022/02/04 12:02:26;;;;;;;8.65;5.32;;;11.50;73.20;;;;;;5075796;28;20200;-92
2022/02/04 12:05:17;;;;;;;8.95;4.35;;;11.50;72.10;;;;;;5075045;28;20173;-92
2022/02/04 12:07:55;;;;;;;6.10;4.35;;;11.20;71.80;;;;;;5074937;28;20172;-91
2022/02/04 12:10:34;;;;;;;7.68;4.05;;;11.40;72.60;;;;;;5075445;28;20653;-91
2022/02/04 12:15:43;;;;;;;7.30;5.05;;;11.40;72.60;;;;;;5078418;28;20153;-91
2022/02/04 12:18:12;;;;;;;5.15;4.65;;;11.30;71.80;;;;;;5095172;28;20251;-93
2022/02/04 12:20:51;;;;;;;6.25;5.18;;;11.00;71.10;;;;;;5098005;28;20157;-91
2022/02/04 12:23:29;;;;;;;5.45;3.63;;;11.10;72.20;;;;;;5077566;28;20189;-92
2022/02/04 12:26:01;;;;;;;8.23;3.60;;;11.40;72.20;;;;;;5078091;28;20172;-91
2022/02/04 12:28:48;;;;;;;4.72;3.60;;;11.50;71.40;;;;;;5084645;28;20177;-91
2022/02/04 12:31:36;;;;;;;4.78;3.47;;;11.70;70.20;;;;;;5079104;28;20207;-92
2022/02/04 12:34:11;;;;;;;6.38;4.25;;;11.60;70.20;;;;;;5081568;28;20273;-91
2022/02/04 12:36:51;;;;;;;4.18;3.75;;;11.20;69.20;;;;;;5083974;28;20710;-92
2022/02/04 12:39:26;;;;;;;7.18;4.28;;;11.20;70.20;;;;;;5083179;28;20199;-92
2022/02/04 12:42:01;;;;;;;6.32;3.97;;;11.50;70.60;;;;;;5082465;28;20214;-91
2022/02/04 12:44:34;;;;;;;5.18;3.92;;;11.70;70.40;;;;;;5077903;28;20206;-92
2022/02/04 12:47:07;;;;;;;6.47;3.72;;;11.60;69.50;;;;;;5075608;28;20184;-92
2022/02/04 12:49:55;;;;;;;5.05;3.58;;;11.50;69.20;;;;;;5075357;28;20227;-92
2022/02/04 12:55:05;;;;;;;5.55;3.05;;;11.40;69.80;;;;;;5079013;28;20160;-93
2022/02/04 12:57:36;;;;;;;5.57;3.90;;;11.40;69.90;;;;;;5082172;28;20168;-92
2022/02/04 13:11:05;;;;;;;5.07;3.17;;;11.20;71.30;;;;;;5081415;28;20230;-91
2022/02/04 13:13:43;;;;;;;4.35;2.95;;;11.10;72.10;;;;;;5085080;28;20196;-92
2022/02/04 13:16:14;;;;;;;4.75;2.60;;;11.10;72.90;;;;;;5089047;28;20165;-92
2022/02/04 13:18:40;;;;;;;4.43;3.03;;;11.20;73.00;;;;;;5093637;28;20172;-93
2022/02/04 13:21:05;;;;;;;5.23;3.07;;;11.20;72.60;;;;;;5086415;28;20188;-92
2022/02/04 13:23:33;;;;;;;4.83;3.20;;;11.30;72.80;;;;;;5079419;28;20497;-92
2022/02/04 13:26:02;;;;;;;3.13;2.50;;;11.30;73.10;;;;;;5078455;28;20169;-92
2022/02/04 13:28:37;;;;;;;5.22;3.33;;;11.10;73.40;;;;;;5088763;28;20168;-92
2022/02/04 13:31:06;;;;;;;3.35;1.92;;;11.20;73.70;;;;;;5078532;28;20226;-93
2022/02/04 13:33:41;;;;;;;2.10;1.70;;;11.30;74.00;;;;;;5079365;28;20196;-91
2022/02/04 13:36:41;;;;;;;5.25;2.95;;;11.20;74.10;;;;;;5082736;28;20190;-93
2022/02/04 13:42:27;;;;;;;3.85;2.78;;;11.10;75.90;;;;;;5068581;28;20540;-92
2022/02/04 13:44:59;;;;;;;2.65;2.45;;;11.00;76.00;;;;;;5081790;28;20168;-92
2022/02/04 13:47:59;;;;;;;2.55;1.85;;;11.00;76.80;;;;;;5081975;28;20244;-92
2022/02/04 13:55:38;;;;;;;4.68;2.05;;;10.90;78.00;;;;;;5084879;28;20169;-92
2022/02/04 13:58:25;;;;;;;5.57;1.85;;;10.90;78.20;;;;;;5082216;28;20171;-92
2022/02/04 14:03:28;;;;;;;1.77;1.60;;;10.70;79.20;;;;;;5087017;28;20693;-92
2022/02/04 14:06:12;;;;;;;2.67;1.65;;;10.70;79.80;;;;;;5088849;28;20291;-92
2022/02/04 14:11:37;;;;;;;5.07;1.70;;;10.40;80.30;;;;;;5093623;28;20227;-93
2022/02/04 14:14:11;;;;;;;3.40;1.75;;;10.20;81.30;;;;;;5079407;28;20188;-92
2022/02/04 14:16:39;;;;;;;2.13;1.75;;;10.00;82.50;;;;;;5081627;28;20168;-92
2022/02/04 14:19:06;;;;;;;1.63;1.08;;;9.80;83.60;;;;;;5079747;28;20598;-92
2022/02/04 14:21:35;;;;;;;3.92;1.00;;;9.60;83.50;;;;;;5082377;28;20211;-92
2022/02/04 14:24:10;;;;;;;3.95;1.48;;;9.30;83.00;;;;;;5079311;28;20196;-90
2022/02/04 14:26:40;;;;;;;1.60;1.10;;;8.60;81.90;;;;;;5077022;28;20628;-90
2022/02/04 14:29:14;;;;;;;10.35;1.13;;;8.20;82.80;;;;;;5077435;28;20173;-90
2022/02/04 15:03:41;;;;;;;1.10;0.77;;;6.90;82.90;;;;;;5097723;28;20530;-89
2022/02/04 15:08:36;;;;;;;1.33;0.97;;;6.70;82.50;;;;;;5106715;28;20270;-88
2022/02/04 15:11:12;;;;;;;6.78;1.15;;;6.70;82.90;;;;;;5097027;28;20208;-87
2022/02/04 15:13:39;;;;;;;3.80;0.88;;;6.70;83.10;;;;;;5117268;28;20211;-87
2022/02/04 15:16:07;;;;;;;1.92;0.80;;;6.70;82.80;;;;;;5104119;28;20176;-87
2022/02/04 15:18:34;;;;;;;2.80;0.90;;;6.70;82.80;;;;;;5100828;28;20176;-88
2022/02/04 15:21:10;;;;;;;1.25;0.80;;;6.70;82.30;;;;;;5098579;28;20202;-87
2022/02/04 15:23:36;;;;;;;4.97;1.02;;;6.70;82.50;;;;;;5097007;28;20244;-87
2022/02/04 15:26:03;;;;;;;4.13;1.10;;;6.70;82.80;;;;;;5097953;28;20172;-87
2022/02/04 15:28:40;;;;;;;2.13;0.80;;;6.80;82.90;;;;;;5100092;28;20414;-87
2022/02/04 15:31:10;;;;;;;2.25;0.80;;;6.80;82.80;;;;;;5101065;28;20284;-87
2022/02/04 15:33:37;;;;;;;3.60;1.20;;;6.80;83.60;;;;;;5101142;28;20286;-88
2022/02/04 15:36:06;;;;;;;2.13;0.93;;;6.70;83.80;;;;;;5100837;28;20222;-88
2022/02/04 15:38:34;;;;;;;7.55;1.15;;;6.60;84.20;;;;;;5102555;28;20168;-87
2022/02/04 15:41:01;;;;;;;1.83;1.40;;;6.50;84.90;;;;;;5097997;28;20182;-87
2022/02/04 15:43:29;;;;;;;4.75;1.40;;;6.50;85.20;;;;;;5095948;28;20199;-87
2022/02/04 15:46:18;;;;;;;4.20;1.35;;;6.60;85.60;;;;;;5095190;28;20179;-87
2022/02/04 15:49:19;;;;;;;4.10;1.00;;;6.60;85.40;;;;;;5096019;28;20172;-87
2022/02/04 16:00:10;;;;;;;2.45;0.80;;;6.70;84.00;;;;;;5076681;28;20218;-88
2022/02/04 16:05:13;;;;;;;2.55;1.20;;;6.80;82.00;;;;;;5100622;28;20233;-87
2022/02/04 16:07:40;;;;;;;2.65;1.23;;;6.80;81.10;;;;;;5096140;28;20263;-87
2022/02/04 16:10:25;;;;;;;4.28;1.13;;;6.70;80.50;;;;;;5096417;28;20283;-87
2022/02/04 16:13:06;;;;;;;6.68;1.85;;;6.80;80.60;;;;;;5097696;28;20686;-87
2022/02/04 16:15:47;;;;;;;3.40;1.70;;;6.80;80.00;;;;;;5100359;28;20164;-88
2022/02/04 16:18:19;;;;;;;9.23;1.80;;;6.80;79.70;;;;;;5095213;28;20168;-87
2022/02/04 16:23:26;;;;;;;6.38;2.10;;;6.60;78.50;;;;;;5096379;28;20238;-88
2022/02/04 16:28:41;;;;;;;5.07;1.88;;;6.60;79.10;;;;;;5096338;28;20177;-88
2022/02/04 16:31:09;;;;;;;7.15;2.22;;;6.50;79.20;;;;;;5094283;28;20207;-87
2022/02/04 16:33:35;;;;;;;6.70;1.63;;;6.50;79.70;;;;;;5094576;28;20214;-84
2022/02/04 16:36:22;;;;;;;6.15;2.40;;;6.50;79.80;;;;;;5094945;28;20183;-87
2022/02/04 16:38:54;;;;;;;5.85;2.70;;;6.40;79.70;;;;;;5095361;28;20176;-88
2022/02/04 16:41:28;;;;;;;3.10;1.20;;;6.50;80.00;;;;;;5095023;28;20696;-88
2022/02/04 16:43:53;;;;;;;7.38;1.73;;;6.50;79.50;;;;;;5096700;28;20206;-88
2022/02/04 16:46:19;;;;;;;11.97;1.93;;;6.60;79.60;;;;;;5095286;28;20184;-87
2022/02/04 16:48:45;;;;;;;12.13;2.07;;;6.60;79.50;;;;;;5098632;28;20191;-88
2022/02/04 16:51:13;;;;;;;7.20;1.60;;;6.60;79.50;;;;;;5098558;28;20214;-88
2022/02/04 16:53:38;;;;;;;6.30;1.80;;;6.60;79.50;;;;;;5096497;28;20445;-88
2022/02/04 16:56:05;;;;;;;14.23;1.87;;;6.70;79.80;;;;;;5093705;28;20613;-88
2022/02/04 16:58:31;;;;;;;3.72;1.98;;;6.80;79.60;;;;;;5080866;28;20172;-88
2022/02/04 17:00:58;;;;;;;6.97;1.98;;;6.80;79.10;;;;;;5081527;28;20890;-88
2022/02/04 17:03:23;;;;;;;3.55;2.00;;;6.80;78.50;;;;;;5082198;28;20188;-88
2022/02/04 17:05:54;;;;;;;10.77;1.77;;;6.80;78.00;;;;;;5079306;28;20641;-88
2022/02/04 17:08:32;;;;;;;11.82;2.28;;;6.90;78.20;;;;;;5076197;28;20314;-87
2022/02/04 17:11:07;;;;;;;11.15;2.90;;;6.80;78.30;;;;;;5082143;28;20222;-88
2022/02/04 17:13:34;;;;;;;8.23;2.90;;;6.80;78.30;;;;;;5079180;28;20210;-87
2022/02/04 17:16:00;;;;;;;8.07;2.25;;;6.70;78.20;;;;;;5074362;28;20272;-87
2022/02/04 17:18:26;;;;;;;13.80;3.07;;;6.70;77.40;;;;;;5073297;28;20203;-88
2022/02/04 17:20:52;;;;;;;9.57;2.80;;;6.60;77.10;;;;;;5076063;28;20172;-87
2022/02/04 17:23:27;;;;;;;3.53;1.95;;;6.60;77.00;;;;;;5076025;28;20211;-88
2022/02/04 17:25:57;;;;;;;12.05;1.90;;;6.70;76.90;;;;;;5074919;28;20255;-88
2022/02/04 17:28:26;;;;;;;4.43;2.85;;;6.70;76.50;;;;;;5073860;28;20195;-88
2022/02/04 17:30:53;;;;;;;8.50;2.78;;;6.80;76.50;;;;;;5073730;28;20245;-87
2022/02/04 17:33:18;;;;;;;9.32;3.15;;;6.80;76.00;;;;;;5074902;28;20200;-88
2022/02/04 17:35:44;;;;;;;6.87;2.97;;;6.80;76.40;;;;;;5074688;28;20656;-88
2022/02/04 17:38:11;;;;;;;8.93;2.80;;;6.90;76.70;;;;;;5075343;28;20180;-87
2022/02/04 17:40:37;;;;;;;6.75;3.45;;;6.90;76.80;;;;;;5074563;28;20192;-87
2022/02/04 17:43:03;;;;;;;15.10;2.93;;;6.90;76.80;;;;;;5073227;28;20200;-88
2022/02/04 17:45:29;;;;;;;8.67;2.60;;;6.90;77.00;;;;;;5073823;28;20164;-89
2022/02/04 17:48:04;;;;;;;5.15;2.83;;;6.80;77.00;;;;;;5075121;28;20410;-87
2022/02/04 17:50:36;;;;;;;4.60;2.22;;;6.80;77.10;;;;;;5073545;28;20228;-88
2022/02/04 17:53:12;;;;;;;7.15;3.28;;;6.80;77.20;;;;;;5073801;28;20583;-87
2022/02/04 17:55:46;;;;;;;7.85;2.20;;;6.80;77.40;;;;;;5078440;28;20610;-87
2022/02/04 18:08:29;;;;;;;7.78;2.88;;;7.00;76.40;;;;;;5095041;28;20175;-87
2022/02/04 18:11:00;;;;;;;10.63;2.13;;;6.90;76.80;;;;;;5106277;28;20208;-87
2022/02/04 18:13:44;;;;;;;7.22;3.13;;;6.80;76.70;;;;;;5097243;28;20200;-87
2022/02/04 18:16:10;;;;;;;10.82;3.15;;;6.80;76.80;;;;;;5095392;28;20187;-88
2022/02/04 18:18:36;;;;;;;8.00;2.10;;;6.80;76.70;;;;;;5095511;28;20206;-88
2022/02/04 18:21:03;;;;;;;12.52;2.90;;;6.90;76.90;;;;;;5099900;28;20180;-87
2022/02/04 18:23:30;;;;;;;5.65;4.38;;;6.80;76.50;;;;;;5102266;28;20245;-88
2022/02/04 18:25:56;;;;;;;7.38;2.58;;;6.80;76.30;;;;;;5101759;28;20168;-88
2022/02/04 18:28:23;;;;;;;9.47;2.77;;;6.80;76.20;;;;;;5100314;28;20187;-89
2022/02/04 18:30:49;;;;;;;9.02;2.80;;;6.80;76.30;;;;;;5104638;28;20458;-89
2022/02/04 18:33:16;;;;;;;23.67;4.05;;;6.90;76.40;;;;;;5106259;28;20216;-88
2022/02/04 18:35:43;;;;;;;9.63;2.95;;;7.00;76.40;;;;;;5104350;28;20644;-88
2022/02/04 18:38:50;;;;;;;10.63;3.70;;;7.10;76.30;;;;;;5099398;28;20245;-88
2022/02/04 18:48:49;;;;;;;13.85;3.55;;;7.00;76.50;;;;;;5100951;28;20213;-88
2022/02/04 18:53:58;;;;;;;14.65;4.35;;;6.90;76.70;;;;;;5098315;28;20223;-88
2022/02/04 18:58:55;;;;;;;6.07;3.10;;;6.80;77.00;;;;;;5078895;28;20185;-89
2022/02/04 19:01:25;;;;;;;6.30;3.70;;;6.70;77.20;;;;;;5078926;28;20617;-88
2022/02/04 19:03:56;;;;;;;11.38;4.25;;;6.70;77.60;;;;;;5078998;28;20196;-88
2022/02/04 19:06:27;;;;;;;9.38;3.67;;;6.60;77.80;;;;;;5078094;28;20200;-88
2022/02/04 19:08:57;;;;;;;7.07;3.92;;;6.70;78.00;;;;;;5079790;28;20218;-88
2022/02/04 19:11:46;;;;;;;12.90;3.75;;;6.80;78.10;;;;;;5078699;28;20247;-88
2022/02/04 19:14:17;;;;;;;10.20;3.60;;;6.80;77.80;;;;;;5080997;28;20188;-89
2022/02/04 19:19:22;;;;;;;11.87;3.73;;;6.90;77.40;;;;;;5099896;28;20270;-89
2022/02/04 19:22:04;;;;;;;14.75;2.83;;;7.00;77.40;;;;;;5096125;28;20266;-89
2022/02/04 19:24:32;;;;;;;9.77;3.80;;;7.10;77.00;;;;;;5097470;28;20172;-88
2022/02/04 19:26:58;;;;;;;5.15;2.90;;;7.10;76.90;;;;;;5098293;28;20184;-88
2022/02/04 19:29:25;;;;;;;9.43;3.50;;;7.20;76.50;;;;;;5101412;28;20623;-88
2022/02/04 19:31:55;;;;;;;12.10;4.30;;;7.00;76.30;;;;;;5097233;28;20192;-88
2022/02/04 19:34:24;;;;;;;13.60;3.75;;;7.10;76.40;;;;;;5096821;28;20675;-88
2022/02/04 19:36:55;;;;;;;7.50;3.85;;;7.10;76.00;;;;;;5097140;28;20172;-87
2022/02/04 19:39:22;;;;;;;18.02;3.92;;;7.20;75.90;;;;;;5101168;28;20709;-89
2022/02/04 19:42:00;;;;;;;7.45;3.63;;;7.20;75.80;;;;;;5100725;28;20210;-88
2022/02/04 19:44:27;;;;;;;8.30;3.85;;;7.10;75.90;;;;;;5104873;28;20217;-87
2022/02/04 19:46:58;;;;;;;4.75;3.42;;;7.20;75.80;;;;;;5083090;28;20184;-87
2022/02/04 19:49:28;;;;;;;6.18;3.72;;;7.20;75.80;;;;;;5094445;28;20538;-87
2022/02/04 19:52:07;;;;;;;10.38;3.53;;;7.20;75.80;;;;;;5104161;28;20248;-88
2022/02/04 19:54:52;;;;;;;14.95;4.30;;;7.50;75.50;;;;;;5104241;28;20183;-87
2022/02/04 20:17:01;;;;;;;15.02;4.47;;;7.40;76.00;;;;;;5100071;28;20682;-88
2022/02/04 20:26:55;;;;;;;6.05;3.90;;;6.60;76.10;;;;;;5102636;28;20167;-88
2022/02/04 20:29:21;;;;;;;10.35;3.75;;;6.50;76.10;;;;;;5100573;28;20607;-87
2022/02/04 20:31:47;;;;;;;5.30;3.13;;;6.50;76.00;;;;;;5099042;28;20196;-89
2022/02/04 20:34:13;;;;;;;6.63;3.83;;;6.50;76.20;;;;;;5105752;28;20199;-88
2022/02/04 20:36:38;;;;;;;6.90;3.90;;;6.40;75.90;;;;;;5103550;28;20414;-87
2022/02/04 20:39:10;;;;;;;6.80;3.53;;;6.30;75.90;;;;;;5074923;28;20422;-88
2022/02/04 20:41:36;;;;;;;5.35;3.15;;;6.30;76.20;;;;;;5092853;28;20198;-88
2022/02/04 20:44:02;;;;;;;10.03;3.47;;;6.20;76.50;;;;;;5076102;28;20230;-88